Williams, Pennsylvania
Current Conditions -  °F | °C
As of 6:58 AM on Monday 20 Oct 2014 (Local Time) from KMUI Reporting Station
Clear Clear  
Wind Chill: 31°   Ceiling: Unl
Heat Index: 31°   Visibility: 10mi
Dew Point: 31°   Wind: 2mph
Humidity: 100%   Direction: 10°N
Pressure: 30.09"   Gusts: NA
Location:  40.5905°N, 76.6297°W
Report Text: KMUI 201058Z AUTO 01002KT 10SM CLR 00/00 A3009 RMK AO2 SLP196 T10041004 $
Loading
Personal Weather Stations






























Interactive Weather Map
Tropical Storm Tracking
New forecast layout! Learn more

10-Day Weather Forecast

Advertisements
Track Severe Weather on mobile